sensor_id;sensor_type;location;lat;lon;timestamp;pressure;altitude;pressure_sealevel;temperature;humidity
58243;BME280;50118;53.232;8.252;2022-10-16T00:00:49;100780.81;;;11.54;100.00
58243;BME280;50118;53.232;8.252;2022-10-16T00:14:15;100792.94;;;11.39;100.00
58243;BME280;50118;53.232;8.252;2022-10-16T00:31:20;100794.53;;;11.32;100.00
58243;BME280;50118;53.232;8.252;2022-10-16T00:34:23;100801.47;;;11.25;100.00
58243;BME280;50118;53.232;8.252;2022-10-16T00:37:41;100804.66;;;11.28;100.00
58243;BME280;50118;53.232;8.252;2022-10-16T00:50:44;100805.31;;;11.12;100.00
58243;BME280;50118;53.232;8.252;2022-10-16T00:56:37;100807.94;;;11.22;100.00
58243;BME280;50118;53.232;8.252;2022-10-16T00:59:20;100812.47;;;11.12;100.00
58243;BME280;50118;53.232;8.252;2022-10-16T01:08:17;100796.31;;;11.13;100.00
58243;BME280;50118;53.232;8.252;2022-10-16T01:15:41;100790.97;;;11.13;100.00
58243;BME280;50118;53.232;8.252;2022-10-16T01:18:38;100790.59;;;11.08;100.00
58243;BME280;50118;53.232;8.252;2022-10-16T01:21:37;100786.41;;;11.06;100.00
58243;BME280;50118;53.232;8.252;2022-10-16T01:24:49;100798.50;;;11.00;100.00
58243;BME280;50118;53.232;8.252;2022-10-16T01:28:00;100798.31;;;11.01;100.00
58243;BME280;50118;53.232;8.252;2022-10-16T01:31:11;100794.44;;;10.96;100.00
58243;BME280;50118;53.232;8.252;2022-10-16T01:34:52;100798.09;;;10.95;100.00
58243;BME280;50118;53.232;8.252;2022-10-16T01:40:51;100800.41;;;11.08;100.00
58243;BME280;50118;53.232;8.252;2022-10-16T01:47:16;100805.34;;;11.02;100.00
58243;BME280;50118;53.232;8.252;2022-10-16T01:50:14;100799.75;;;10.96;100.00
58243;BME280;50118;53.232;8.252;2022-10-16T01:56:53;100815.19;;;11.02;100.00
58243;BME280;50118;53.232;8.252;2022-10-16T02:00:07;100814.56;;;11.08;100.00
58243;BME280;50118;53.232;8.252;2022-10-16T02:03:21;100821.16;;;11.14;100.00
58243;BME280;50118;53.232;8.252;2022-10-16T02:07:00;100814.81;;;11.15;100.00
58243;BME280;50118;53.232;8.252;2022-10-16T02:10:04;100819.44;;;11.23;100.00
58243;BME280;50118;53.232;8.252;2022-10-16T02:26:45;100824.53;;;11.06;100.00
58243;BME280;50118;53.232;8.252;2022-10-16T02:41:01;100816.84;;;11.03;100.00
58243;BME280;50118;53.232;8.252;2022-10-16T02:44:10;100810.53;;;11.04;100.00
58243;BME280;50118;53.232;8.252;2022-10-16T02:47:24;100803.25;;;10.96;100.00
58243;BME280;50118;53.232;8.252;2022-10-16T02:54:02;100804.69;;;10.91;100.00
58243;BME280;50118;53.232;8.252;2022-10-16T02:56:49;100812.00;;;10.89;100.00
58243;BME280;50118;53.232;8.252;2022-10-16T03:00:38;100805.56;;;10.81;100.00
58243;BME280;50118;53.232;8.252;2022-10-16T03:13:21;100808.13;;;10.73;100.00
58243;BME280;50118;53.232;8.252;2022-10-16T03:16:45;100805.28;;;10.84;100.00
58243;BME280;50118;53.232;8.252;2022-10-16T03:19:31;100806.13;;;10.85;100.00
58243;BME280;50118;53.232;8.252;2022-10-16T03:22:11;100803.19;;;10.78;100.00
58243;BME280;50118;53.232;8.252;2022-10-16T03:25:09;100816.22;;;10.81;100.00
58243;BME280;50118;53.232;8.252;2022-10-16T03:27:43;100817.59;;;10.95;100.00
58243;BME280;50118;53.232;8.252;2022-10-16T03:33:39;100812.50;;;11.02;100.00
58243;BME280;50118;53.232;8.252;2022-10-16T03:36:10;100817.25;;;11.08;100.00
58243;BME280;50118;53.232;8.252;2022-10-16T03:38:36;100808.53;;;11.16;100.00
58243;BME280;50118;53.232;8.252;2022-10-16T03:41:13;100813.84;;;11.16;100.00
58243;BME280;50118;53.232;8.252;2022-10-16T03:47:57;100826.41;;;11.33;100.00
58243;BME280;50118;53.232;8.252;2022-10-16T03:50:53;100821.59;;;11.37;100.00
58243;BME280;50118;53.232;8.252;2022-10-16T03:53:29;100835.03;;;11.45;100.00
58243;BME280;50118;53.232;8.252;2022-10-16T04:21:07;100878.22;;;11.58;100.00
58243;BME280;50118;53.232;8.252;2022-10-16T04:23:33;100868.09;;;11.62;100.00
58243;BME280;50118;53.232;8.252;2022-10-16T04:25:59;100873.97;;;11.66;100.00
58243;BME280;50118;53.232;8.252;2022-10-16T04:28:24;100861.00;;;11.71;100.00
58243;BME280;50118;53.232;8.252;2022-10-16T04:30:50;100861.31;;;11.68;100.00
58243;BME280;50118;53.232;8.252;2022-10-16T04:33:15;100860.63;;;11.66;100.00
58243;BME280;50118;53.232;8.252;2022-10-16T04:35:41;100853.53;;;11.56;100.00
58243;BME280;50118;53.232;8.252;2022-10-16T04:38:07;100866.38;;;11.61;100.00
58243;BME280;50118;53.232;8.252;2022-10-16T04:40:32;100854.22;;;11.58;100.00
58243;BME280;50118;53.232;8.252;2022-10-16T04:42:59;100856.63;;;11.52;100.00
58243;BME280;50118;53.232;8.252;2022-10-16T04:45:25;100865.81;;;11.67;100.00
58243;BME280;50118;53.232;8.252;2022-10-16T04:47:50;100864.69;;;11.70;100.00
58243;BME280;50118;53.232;8.252;2022-10-16T04:50:16;100866.19;;;11.72;100.00
58243;BME280;50118;53.232;8.252;2022-10-16T04:52:49;100864.13;;;11.66;100.00
58243;BME280;50118;53.232;8.252;2022-10-16T04:55:15;100870.59;;;11.64;100.00
58243;BME280;50118;53.232;8.252;2022-10-16T04:57:40;100876.63;;;11.66;100.00
58243;BME280;50118;53.232;8.252;2022-10-16T05:00:07;100881.56;;;11.61;100.00
58243;BME280;50118;53.232;8.252;2022-10-16T05:02:33;100877.06;;;11.61;100.00
58243;BME280;50118;53.232;8.252;2022-10-16T05:05:31;100893.53;;;11.56;100.00
58243;BME280;50118;53.232;8.252;2022-10-16T05:07:56;100884.38;;;11.59;100.00
58243;BME280;50118;53.232;8.252;2022-10-16T05:10:22;100882.34;;;11.71;100.00
58243;BME280;50118;53.232;8.252;2022-10-16T05:12:48;100879.59;;;11.63;100.00
58243;BME280;50118;53.232;8.252;2022-10-16T05:15:13;100883.94;;;11.64;100.00
58243;BME280;50118;53.232;8.252;2022-10-16T05:17:39;100887.16;;;11.67;100.00
58243;BME280;50118;53.232;8.252;2022-10-16T05:20:05;100886.63;;;11.64;100.00
58243;BME280;50118;53.232;8.252;2022-10-16T05:22:30;100890.66;;;11.68;100.00
58243;BME280;50118;53.232;8.252;2022-10-16T05:24:56;100884.72;;;11.74;100.00
58243;BME280;50118;53.232;8.252;2022-10-16T05:27:24;100878.16;;;11.68;100.00
58243;BME280;50118;53.232;8.252;2022-10-16T05:29:49;100884.88;;;11.72;100.00
58243;BME280;50118;53.232;8.252;2022-10-16T05:35:14;100884.03;;;11.72;100.00
58243;BME280;50118;53.232;8.252;2022-10-16T05:37:39;100893.56;;;11.74;100.00
58243;BME280;50118;53.232;8.252;2022-10-16T05:40:06;100896.72;;;11.70;100.00
58243;BME280;50118;53.232;8.252;2022-10-16T05:42:31;100890.34;;;11.71;100.00
58243;BME280;50118;53.232;8.252;2022-10-16T05:44:57;100895.41;;;11.74;100.00
58243;BME280;50118;53.232;8.252;2022-10-16T05:47:28;100897.13;;;11.65;100.00
58243;BME280;50118;53.232;8.252;2022-10-16T05:49:56;100909.31;;;11.68;100.00
58243;BME280;50118;53.232;8.252;2022-10-16T05:52:31;100915.00;;;11.65;100.00
58243;BME280;50118;53.232;8.252;2022-10-16T05:54:56;100913.00;;;11.67;100.00
58243;BME280;50118;53.232;8.252;2022-10-16T05:57:22;100916.94;;;11.63;100.00
58243;BME280;50118;53.232;8.252;2022-10-16T05:59:47;100923.69;;;11.67;100.00
58243;BME280;50118;53.232;8.252;2022-10-16T06:02:25;100924.50;;;11.67;100.00
58243;BME280;50118;53.232;8.252;2022-10-16T06:04:51;100926.44;;;11.75;100.00
58243;BME280;50118;53.232;8.252;2022-10-16T06:07:22;100924.22;;;11.70;100.00
58243;BME280;50118;53.232;8.252;2022-10-16T06:10:08;100927.31;;;11.66;100.00
58243;BME280;50118;53.232;8.252;2022-10-16T06:12:34;100932.38;;;11.69;100.00
58243;BME280;50118;53.232;8.252;2022-10-16T06:14:59;100934.31;;;11.76;100.00
58243;BME280;50118;53.232;8.252;2022-10-16T06:17:25;100944.22;;;11.84;100.00
58243;BME280;50118;53.232;8.252;2022-10-16T06:19:50;100942.84;;;11.80;100.00
58243;BME280;50118;53.232;8.252;2022-10-16T06:22:16;100946.66;;;11.77;100.00
58243;BME280;50118;53.232;8.252;2022-10-16T06:24:41;100943.53;;;11.82;100.00
58243;BME280;50118;53.232;8.252;2022-10-16T06:27:27;100959.13;;;11.87;100.00
58243;BME280;50118;53.232;8.252;2022-10-16T06:29:52;100951.25;;;11.85;100.00
58243;BME280;50118;53.232;8.252;2022-10-16T06:32:18;100956.28;;;11.88;100.00
58243;BME280;50118;53.232;8.252;2022-10-16T06:34:44;100957.56;;;11.84;100.00
58243;BME280;50118;53.232;8.252;2022-10-16T06:37:09;100962.09;;;11.84;100.00
58243;BME280;50118;53.232;8.252;2022-10-16T06:39:37;100964.03;;;11.91;100.00
58243;BME280;50118;53.232;8.252;2022-10-16T06:42:05;100972.91;;;11.92;100.00
58243;BME280;50118;53.232;8.252;2022-10-16T06:44:31;100974.69;;;11.91;100.00
58243;BME280;50118;53.232;8.252;2022-10-16T06:46:56;100974.28;;;11.86;100.00
58243;BME280;50118;53.232;8.252;2022-10-16T06:49:22;100974.97;;;11.88;100.00
58243;BME280;50118;53.232;8.252;2022-10-16T06:51:48;100984.13;;;11.95;100.00
58243;BME280;50118;53.232;8.252;2022-10-16T06:54:15;100990.00;;;11.99;100.00
58243;BME280;50118;53.232;8.252;2022-10-16T06:59:53;101001.72;;;12.16;100.00
58243;BME280;50118;53.232;8.252;2022-10-16T07:02:19;101000.13;;;12.23;100.00
58243;BME280;50118;53.232;8.252;2022-10-16T07:04:44;101003.75;;;12.22;100.00
58243;BME280;50118;53.232;8.252;2022-10-16T07:07:10;101001.72;;;12.34;100.00
58243;BME280;50118;53.232;8.252;2022-10-16T07:09:36;101005.31;;;12.43;100.00
58243;BME280;50118;53.232;8.252;2022-10-16T07:12:04;101010.13;;;12.39;100.00
58243;BME280;50118;53.232;8.252;2022-10-16T07:14:30;101012.59;;;12.50;100.00
58243;BME280;50118;53.232;8.252;2022-10-16T07:16:55;101010.16;;;12.57;100.00
58243;BME280;50118;53.232;8.252;2022-10-16T07:19:21;101017.78;;;12.70;100.00
58243;BME280;50118;53.232;8.252;2022-10-16T07:21:47;101013.44;;;12.87;100.00
58243;BME280;50118;53.232;8.252;2022-10-16T07:24:16;101012.94;;;13.27;100.00
58243;BME280;50118;53.232;8.252;2022-10-16T07:26:43;101022.97;;;13.43;100.00
58243;BME280;50118;53.232;8.252;2022-10-16T07:29:13;101030.13;;;13.43;100.00
58243;BME280;50118;53.232;8.252;2022-10-16T07:31:39;101028.25;;;13.35;100.00
58243;BME280;50118;53.232;8.252;2022-10-16T07:34:05;101028.81;;;13.29;100.00
58243;BME280;50118;53.232;8.252;2022-10-16T07:36:30;101036.44;;;13.34;100.00
58243;BME280;50118;53.232;8.252;2022-10-16T07:38:56;101037.16;;;13.44;100.00
58243;BME280;50118;53.232;8.252;2022-10-16T07:41:42;101043.19;;;13.46;100.00
58243;BME280;50118;53.232;8.252;2022-10-16T07:44:07;101048.50;;;13.64;100.00
58243;BME280;50118;53.232;8.252;2022-10-16T07:46:33;101049.03;;;13.68;100.00
58243;BME280;50118;53.232;8.252;2022-10-16T07:49:01;101059.38;;;13.62;100.00
58243;BME280;50118;53.232;8.252;2022-10-16T07:51:26;101066.88;;;13.85;100.00
58243;BME280;50118;53.232;8.252;2022-10-16T07:53:53;101060.75;;;14.01;100.00
58243;BME280;50118;53.232;8.252;2022-10-16T07:56:19;101066.19;;;14.17;100.00
58243;BME280;50118;53.232;8.252;2022-10-16T07:58:45;101071.47;;;14.01;100.00
58243;BME280;50118;53.232;8.252;2022-10-16T08:01:14;101075.66;;;14.38;100.00
58243;BME280;50118;53.232;8.252;2022-10-16T08:03:44;101080.47;;;14.69;100.00
58243;BME280;50118;53.232;8.252;2022-10-16T08:06:10;101086.84;;;14.76;100.00
58243;BME280;50118;53.232;8.252;2022-10-16T08:08:36;101089.84;;;14.65;100.00
58243;BME280;50118;53.232;8.252;2022-10-16T08:11:01;101094.88;;;14.68;100.00
58243;BME280;50118;53.232;8.252;2022-10-16T08:13:29;101095.91;;;14.75;100.00
58243;BME280;50118;53.232;8.252;2022-10-16T08:15:55;101092.19;;;14.76;100.00
58243;BME280;50118;53.232;8.252;2022-10-16T08:18:24;101085.56;;;15.13;100.00
58243;BME280;50118;53.232;8.252;2022-10-16T08:20:57;101095.28;;;14.98;100.00
58243;BME280;50118;53.232;8.252;2022-10-16T08:23:23;101093.56;;;14.80;100.00
58243;BME280;50118;53.232;8.252;2022-10-16T08:25:51;101098.44;;;14.77;100.00
58243;BME280;50118;53.232;8.252;2022-10-16T08:28:17;101102.16;;;14.49;100.00
58243;BME280;50118;53.232;8.252;2022-10-16T08:30:42;101098.81;;;14.47;100.00
58243;BME280;50118;53.232;8.252;2022-10-16T08:33:08;101102.91;;;14.33;100.00
58243;BME280;50118;53.232;8.252;2022-10-16T08:35:33;101093.69;;;14.28;100.00
58243;BME280;50118;53.232;8.252;2022-10-16T08:37:59;101101.25;;;14.32;100.00
58243;BME280;50118;53.232;8.252;2022-10-16T08:40:25;101097.91;;;14.30;100.00
58243;BME280;50118;53.232;8.252;2022-10-16T08:48:50;101116.06;;;14.53;100.00
58243;BME280;50118;53.232;8.252;2022-10-16T08:51:22;101123.06;;;14.80;100.00
58243;BME280;50118;53.232;8.252;2022-10-16T08:53:52;101126.63;;;14.97;100.00
58243;BME280;50118;53.232;8.252;2022-10-16T08:56:19;101124.44;;;14.92;100.00
58243;BME280;50118;53.232;8.252;2022-10-16T08:58:45;101123.41;;;14.85;100.00
58243;BME280;50118;53.232;8.252;2022-10-16T09:01:17;101122.69;;;14.67;100.00
58243;BME280;50118;53.232;8.252;2022-10-16T09:06:55;101135.47;;;14.73;100.00
58243;BME280;50118;53.232;8.252;2022-10-16T09:12:31;101137.56;;;15.28;100.00
58243;BME280;50118;53.232;8.252;2022-10-16T09:26:23;101138.38;;;16.19;93.51
58243;BME280;50118;53.232;8.252;2022-10-16T09:28:52;101150.66;;;15.97;94.18
58243;BME280;50118;53.232;8.252;2022-10-16T09:31:19;101146.63;;;15.93;97.61
58243;BME280;50118;53.232;8.252;2022-10-16T09:33:59;101154.00;;;16.08;93.49
58243;BME280;50118;53.232;8.252;2022-10-16T09:36:27;101158.50;;;16.23;92.85
58243;BME280;50118;53.232;8.252;2022-10-16T09:39:08;101163.34;;;16.36;92.23
58243;BME280;50118;53.232;8.252;2022-10-16T09:41:39;101173.50;;;16.57;89.97
58243;BME280;50118;53.232;8.252;2022-10-16T09:44:26;101179.50;;;16.28;89.96
58243;BME280;50118;53.232;8.252;2022-10-16T09:47:03;101181.59;;;16.49;89.85
58243;BME280;50118;53.232;8.252;2022-10-16T09:49:29;101183.75;;;16.62;89.66
58243;BME280;50118;53.232;8.252;2022-10-16T09:52:35;101186.22;;;17.11;86.90
58243;BME280;50118;53.232;8.252;2022-10-16T09:55:08;101184.38;;;16.72;88.32
58243;BME280;50118;53.232;8.252;2022-10-16T09:57:48;101179.72;;;16.58;88.97
58243;BME280;50118;53.232;8.252;2022-10-16T10:00:16;101190.81;;;16.55;88.21
58243;BME280;50118;53.232;8.252;2022-10-16T10:02:43;101188.72;;;16.73;87.96
58243;BME280;50118;53.232;8.252;2022-10-16T10:05:21;101203.22;;;16.64;86.19
58243;BME280;50118;53.232;8.252;2022-10-16T10:08:01;101195.50;;;16.61;87.11
58243;BME280;50118;53.232;8.252;2022-10-16T10:10:33;101205.97;;;16.48;87.42
58243;BME280;50118;53.232;8.252;2022-10-16T10:13:00;101207.69;;;16.40;87.21
58243;BME280;50118;53.232;8.252;2022-10-16T10:15:32;101198.50;;;16.74;84.33
58243;BME280;50118;53.232;8.252;2022-10-16T10:17:58;101205.41;;;16.69;83.33
58243;BME280;50118;53.232;8.252;2022-10-16T10:20:36;101210.56;;;16.87;82.57
58243;BME280;50118;53.232;8.252;2022-10-16T10:23:23;101216.34;;;16.67;82.14
58243;BME280;50118;53.232;8.252;2022-10-16T10:26:07;101225.88;;;16.86;81.77
58243;BME280;50118;53.232;8.252;2022-10-16T10:28:56;101225.56;;;17.12;81.02
58243;BME280;50118;53.232;8.252;2022-10-16T10:31:32;101228.69;;;17.01;81.39
58243;BME280;50118;53.232;8.252;2022-10-16T10:56:07;101252.69;;;17.42;77.41
58243;BME280;50118;53.232;8.252;2022-10-16T11:06:42;101261.41;;;17.13;77.88
58243;BME280;50118;53.232;8.252;2022-10-16T11:12:58;101274.66;;;16.67;80.13
58243;BME280;50118;53.232;8.252;2022-10-16T11:15:39;101270.13;;;16.67;79.94
58243;BME280;50118;53.232;8.252;2022-10-16T11:18:15;101264.03;;;16.90;79.07
58243;BME280;50118;53.232;8.252;2022-10-16T11:20:53;101267.03;;;16.95;77.23
58243;BME280;50118;53.232;8.252;2022-10-16T11:24:09;101287.25;;;17.30;74.86
58243;BME280;50118;53.232;8.252;2022-10-16T11:26:41;101293.16;;;17.57;74.89
58243;BME280;50118;53.232;8.252;2022-10-16T11:32:28;101300.28;;;17.42;71.74
58243;BME280;50118;53.232;8.252;2022-10-16T11:35:06;101302.63;;;17.13;71.67
58243;BME280;50118;53.232;8.252;2022-10-16T11:37:42;101301.03;;;16.96;71.60
58243;BME280;50118;53.232;8.252;2022-10-16T11:40:23;101312.41;;;17.06;74.25
58243;BME280;50118;53.232;8.252;2022-10-16T11:56:30;101319.22;;;18.34;68.25
58243;BME280;50118;53.232;8.252;2022-10-16T11:59:02;101313.94;;;18.41;67.04
58243;BME280;50118;53.232;8.252;2022-10-16T12:05:28;101326.06;;;17.99;66.27
58243;BME280;50118;53.232;8.252;2022-10-16T12:08:11;101325.06;;;17.37;68.31
58243;BME280;50118;53.232;8.252;2022-10-16T12:10:39;101323.97;;;17.54;68.66
58243;BME280;50118;53.232;8.252;2022-10-16T12:13:26;101338.25;;;17.55;69.04
58243;BME280;50118;53.232;8.252;2022-10-16T12:16:22;101338.59;;;17.52;67.26
58243;BME280;50118;53.232;8.252;2022-10-16T12:19:21;101345.34;;;17.79;66.92
58243;BME280;50118;53.232;8.252;2022-10-16T12:21:47;101340.63;;;17.89;67.65
58243;BME280;50118;53.232;8.252;2022-10-16T12:24:32;101343.00;;;17.84;68.58
58243;BME280;50118;53.232;8.252;2022-10-16T12:27:45;101356.81;;;17.81;67.63
58243;BME280;50118;53.232;8.252;2022-10-16T12:30:14;101366.38;;;17.84;67.86
58243;BME280;50118;53.232;8.252;2022-10-16T12:32:53;101365.72;;;17.82;68.71
58243;BME280;50118;53.232;8.252;2022-10-16T12:35:22;101368.59;;;17.80;66.25
58243;BME280;50118;53.232;8.252;2022-10-16T12:37:48;101368.94;;;17.77;68.07
58243;BME280;50118;53.232;8.252;2022-10-16T12:40:32;101370.03;;;17.68;68.66
58243;BME280;50118;53.232;8.252;2022-10-16T12:42:59;101376.81;;;17.55;68.29
58243;BME280;50118;53.232;8.252;2022-10-16T12:45:35;101381.00;;;17.58;67.29
58243;BME280;50118;53.232;8.252;2022-10-16T12:54:48;101395.50;;;17.57;66.50
58243;BME280;50118;53.232;8.252;2022-10-16T13:06:57;101397.16;;;17.58;65.21
58243;BME280;50118;53.232;8.252;2022-10-16T13:18:42;101411.44;;;17.67;66.68
58243;BME280;50118;53.232;8.252;2022-10-16T13:21:25;101409.53;;;17.76;67.80
58243;BME280;50118;53.232;8.252;2022-10-16T13:30:52;101428.69;;;17.49;66.24
58243;BME280;50118;53.232;8.252;2022-10-16T13:33:25;101427.72;;;17.34;66.87
58243;BME280;50118;53.232;8.252;2022-10-16T13:35:56;101436.88;;;17.16;65.12
58243;BME280;50118;53.232;8.252;2022-10-16T13:51:16;101448.97;;;17.12;67.33
58243;BME280;50118;53.232;8.252;2022-10-16T13:53:43;101459.06;;;17.10;66.72
58243;BME280;50118;53.232;8.252;2022-10-16T13:56:14;101456.69;;;17.24;68.22
58243;BME280;50118;53.232;8.252;2022-10-16T13:59:03;101466.44;;;17.33;67.38
58243;BME280;50118;53.232;8.252;2022-10-16T14:04:13;101471.78;;;17.49;65.56
58243;BME280;50118;53.232;8.252;2022-10-16T14:09:42;101479.63;;;17.11;64.50
58243;BME280;50118;53.232;8.252;2022-10-16T14:12:13;101479.63;;;17.03;65.83
58243;BME280;50118;53.232;8.252;2022-10-16T14:14:43;101486.00;;;16.94;66.28
58243;BME280;50118;53.232;8.252;2022-10-16T14:17:25;101485.81;;;16.71;67.45
58243;BME280;50118;53.232;8.252;2022-10-16T14:19:56;101481.78;;;16.58;68.08
58243;BME280;50118;53.232;8.252;2022-10-16T14:24:57;101495.31;;;16.16;70.35
58243;BME280;50118;53.232;8.252;2022-10-16T14:27:29;101496.44;;;16.05;71.43
58243;BME280;50118;53.232;8.252;2022-10-16T14:32:40;101508.06;;;16.22;71.85
58243;BME280;50118;53.232;8.252;2022-10-16T14:35:22;101497.16;;;16.23;72.51
58243;BME280;50118;53.232;8.252;2022-10-16T14:37:51;101501.03;;;16.29;70.45
58243;BME280;50118;53.232;8.252;2022-10-16T14:40:17;101496.88;;;16.35;70.94
58243;BME280;50118;53.232;8.252;2022-10-16T14:42:44;101494.38;;;16.41;70.80
58243;BME280;50118;53.232;8.252;2022-10-16T14:45:10;101503.28;;;16.50;68.88
58243;BME280;50118;53.232;8.252;2022-10-16T14:47:49;101509.13;;;16.37;69.94
58243;BME280;50118;53.232;8.252;2022-10-16T14:50:18;101513.38;;;16.48;68.27
58243;BME280;50118;53.232;8.252;2022-10-16T14:52:53;101499.72;;;16.50;67.31
58243;BME280;50118;53.232;8.252;2022-10-16T14:55:42;101506.44;;;16.37;67.28
58243;BME280;50118;53.232;8.252;2022-10-16T14:58:21;101518.69;;;16.32;66.87
58243;BME280;50118;53.232;8.252;2022-10-16T15:00:51;101522.19;;;16.24;68.30
58243;BME280;50118;53.232;8.252;2022-10-16T15:03:19;101522.53;;;16.21;68.76
58243;BME280;50118;53.232;8.252;2022-10-16T15:05:44;101531.22;;;16.06;69.33
58243;BME280;50118;53.232;8.252;2022-10-16T15:08:12;101535.72;;;15.98;69.93
58243;BME280;50118;53.232;8.252;2022-10-16T15:10:43;101540.56;;;15.94;69.40
58243;BME280;50118;53.232;8.252;2022-10-16T15:13:12;101537.63;;;15.79;71.00
58243;BME280;50118;53.232;8.252;2022-10-16T15:15:46;101533.50;;;15.67;70.82
58243;BME280;50118;53.232;8.252;2022-10-16T15:18:15;101535.38;;;15.66;70.98
58243;BME280;50118;53.232;8.252;2022-10-16T15:20:49;101531.44;;;15.61;72.59
58243;BME280;50118;53.232;8.252;2022-10-16T15:23:17;101548.38;;;15.53;72.74
58243;BME280;50118;53.232;8.252;2022-10-16T15:25:45;101553.06;;;15.51;73.59
58243;BME280;50118;53.232;8.252;2022-10-16T15:28:12;101562.50;;;15.37;74.95
58243;BME280;50118;53.232;8.252;2022-10-16T15:30:42;101558.31;;;15.35;74.53
58243;BME280;50118;53.232;8.252;2022-10-16T15:33:14;101555.09;;;15.31;75.67
58243;BME280;50118;53.232;8.252;2022-10-16T15:36:09;101559.56;;;15.22;77.18
58243;BME280;50118;53.232;8.252;2022-10-16T15:38:42;101544.84;;;15.08;77.26
58243;BME280;50118;53.232;8.252;2022-10-16T15:41:18;101557.84;;;14.95;77.82
58243;BME280;50118;53.232;8.252;2022-10-16T15:43:44;101550.53;;;14.87;79.05
58243;BME280;50118;53.232;8.252;2022-10-16T15:46:41;101546.88;;;14.88;79.13
58243;BME280;50118;53.232;8.252;2022-10-16T15:49:12;101537.56;;;14.83;79.48
58243;BME280;50118;53.232;8.252;2022-10-16T15:51:40;101536.81;;;14.72;82.50
58243;BME280;50118;53.232;8.252;2022-10-16T15:54:06;101545.34;;;14.68;84.77
58243;BME280;50118;53.232;8.252;2022-10-16T15:56:40;101545.13;;;14.51;83.74
58243;BME280;50118;53.232;8.252;2022-10-16T15:59:06;101555.06;;;14.41;84.58
58243;BME280;50118;53.232;8.252;2022-10-16T16:01:35;101553.44;;;14.30;86.25
58243;BME280;50118;53.232;8.252;2022-10-16T16:04:01;101557.78;;;14.13;88.73
58243;BME280;50118;53.232;8.252;2022-10-16T16:06:26;101564.59;;;13.98;90.53
58243;BME280;50118;53.232;8.252;2022-10-16T16:08:52;101568.28;;;13.87;92.50
58243;BME280;50118;53.232;8.252;2022-10-16T16:11:38;101563.56;;;13.71;94.35
58243;BME280;50118;53.232;8.252;2022-10-16T16:14:07;101570.09;;;13.59;95.24
58243;BME280;50118;53.232;8.252;2022-10-16T16:16:35;101580.25;;;13.45;96.50
58243;BME280;50118;53.232;8.252;2022-10-16T16:19:04;101585.31;;;13.29;98.14
58243;BME280;50118;53.232;8.252;2022-10-16T16:21:31;101583.06;;;13.15;99.87
58243;BME280;50118;53.232;8.252;2022-10-16T16:24:06;101589.84;;;12.99;100.00
58243;BME280;50118;53.232;8.252;2022-10-16T16:26:34;101595.16;;;12.89;100.00
58243;BME280;50118;53.232;8.252;2022-10-16T16:29:03;101595.41;;;12.77;100.00
58243;BME280;50118;53.232;8.252;2022-10-16T16:31:30;101606.13;;;12.67;100.00
58243;BME280;50118;53.232;8.252;2022-10-16T16:33:59;101608.91;;;12.56;100.00
58243;BME280;50118;53.232;8.252;2022-10-16T16:36:27;101608.88;;;12.46;100.00
58243;BME280;50118;53.232;8.252;2022-10-16T16:38:52;101613.06;;;12.39;100.00
58243;BME280;50118;53.232;8.252;2022-10-16T16:41:20;101614.72;;;12.30;100.00
58243;BME280;50118;53.232;8.252;2022-10-16T16:43:46;101616.97;;;12.25;100.00
58243;BME280;50118;53.232;8.252;2022-10-16T16:46:13;101630.28;;;12.15;100.00
58243;BME280;50118;53.232;8.252;2022-10-16T16:48:39;101628.41;;;12.06;100.00
58243;BME280;50118;53.232;8.252;2022-10-16T16:51:06;101640.59;;;11.99;100.00
58243;BME280;50118;53.232;8.252;2022-10-16T16:53:35;101636.75;;;11.91;100.00
58243;BME280;50118;53.232;8.252;2022-10-16T16:56:05;101641.88;;;11.83;100.00
58243;BME280;50118;53.232;8.252;2022-10-16T16:58:36;101642.41;;;11.77;100.00
58243;BME280;50118;53.232;8.252;2022-10-16T17:01:02;101650.09;;;11.70;100.00
58243;BME280;50118;53.232;8.252;2022-10-16T17:03:33;101653.13;;;11.66;100.00
58243;BME280;50118;53.232;8.252;2022-10-16T17:06:05;101649.31;;;11.58;100.00
58243;BME280;50118;53.232;8.252;2022-10-16T17:08:30;101655.44;;;11.49;100.00
58243;BME280;50118;53.232;8.252;2022-10-16T17:10:57;101654.97;;;11.44;100.00
58243;BME280;50118;53.232;8.252;2022-10-16T17:13:24;101663.34;;;11.39;100.00
58243;BME280;50118;53.232;8.252;2022-10-16T17:15:51;101663.84;;;11.33;100.00
58243;BME280;50118;53.232;8.252;2022-10-16T17:18:18;101668.84;;;11.27;100.00
58243;BME280;50118;53.232;8.252;2022-10-16T17:20:46;101671.28;;;11.18;100.00
58243;BME280;50118;53.232;8.252;2022-10-16T17:23:12;101678.81;;;11.13;100.00
58243;BME280;50118;53.232;8.252;2022-10-16T17:25:38;101682.97;;;11.06;100.00
58243;BME280;50118;53.232;8.252;2022-10-16T17:28:05;101687.13;;;10.99;100.00
58243;BME280;50118;53.232;8.252;2022-10-16T17:30:31;101676.94;;;10.93;100.00
58243;BME280;50118;53.232;8.252;2022-10-16T17:33:02;101681.69;;;10.89;100.00
58243;BME280;50118;53.232;8.252;2022-10-16T17:35:39;101689.78;;;10.88;100.00
58243;BME280;50118;53.232;8.252;2022-10-16T17:38:25;101687.88;;;10.78;100.00
58243;BME280;50118;53.232;8.252;2022-10-16T17:40:53;101700.00;;;10.71;100.00
58243;BME280;50118;53.232;8.252;2022-10-16T17:43:19;101688.88;;;10.66;100.00
58243;BME280;50118;53.232;8.252;2022-10-16T17:45:44;101697.34;;;10.60;100.00
58243;BME280;50118;53.232;8.252;2022-10-16T17:48:10;101704.00;;;10.54;100.00
58243;BME280;50118;53.232;8.252;2022-10-16T17:50:39;101712.13;;;10.53;100.00